sensor_id;sensor_type;location;lat;lon;timestamp;P1;durP1;ratioP1;P2;durP2;ratioP2
2289;SDS011;1153;47.986;7.898;2022-11-30T00:01:09;11.10;;;7.77;;
2289;SDS011;1153;47.986;7.898;2022-11-30T00:03:34;12.33;;;8.37;;
2289;SDS011;1153;47.986;7.898;2022-11-30T00:06:03;15.50;;;9.50;;
2289;SDS011;1153;47.986;7.898;2022-11-30T00:08:29;11.73;;;8.13;;
2289;SDS011;1153;47.986;7.898;2022-11-30T00:10:54;8.67;;;6.97;;
2289;SDS011;1153;47.986;7.898;2022-11-30T00:13:19;10.27;;;7.37;;
2289;SDS011;1153;47.986;7.898;2022-11-30T00:15:45;9.63;;;7.03;;
2289;SDS011;1153;47.986;7.898;2022-11-30T00:18:10;10.80;;;7.57;;
2289;SDS011;1153;47.986;7.898;2022-11-30T00:20:35;11.00;;;8.50;;
2289;SDS011;1153;47.986;7.898;2022-11-30T00:23:00;13.40;;;8.53;;
2289;SDS011;1153;47.986;7.898;2022-11-30T00:25:25;21.37;;;9.27;;
2289;SDS011;1153;47.986;7.898;2022-11-30T00:27:51;10.77;;;7.10;;
2289;SDS011;1153;47.986;7.898;2022-11-30T00:30:16;11.07;;;8.27;;
2289;SDS011;1153;47.986;7.898;2022-11-30T00:32:41;13.00;;;7.97;;
2289;SDS011;1153;47.986;7.898;2022-11-30T00:35:06;12.13;;;7.23;;
2289;SDS011;1153;47.986;7.898;2022-11-30T00:37:33;12.57;;;8.67;;
2289;SDS011;1153;47.986;7.898;2022-11-30T00:39:58;13.07;;;7.63;;
2289;SDS011;1153;47.986;7.898;2022-11-30T00:42:23;11.83;;;7.70;;
2289;SDS011;1153;47.986;7.898;2022-11-30T00:44:48;8.77;;;8.00;;
2289;SDS011;1153;47.986;7.898;2022-11-30T00:47:14;11.13;;;7.37;;
2289;SDS011;1153;47.986;7.898;2022-11-30T00:49:39;13.03;;;7.13;;
2289;SDS011;1153;47.986;7.898;2022-11-30T00:52:04;11.43;;;6.80;;
2289;SDS011;1153;47.986;7.898;2022-11-30T00:54:29;10.20;;;7.10;;
2289;SDS011;1153;47.986;7.898;2022-11-30T00:56:54;10.50;;;6.80;;
2289;SDS011;1153;47.986;7.898;2022-11-30T00:59:20;10.60;;;6.70;;
2289;SDS011;1153;47.986;7.898;2022-11-30T01:01:45;9.57;;;7.07;;
2289;SDS011;1153;47.986;7.898;2022-11-30T01:04:10;14.73;;;8.00;;
2289;SDS011;1153;47.986;7.898;2022-11-30T01:06:35;8.30;;;6.23;;
2289;SDS011;1153;47.986;7.898;2022-11-30T01:09:01;7.10;;;6.20;;
2289;SDS011;1153;47.986;7.898;2022-11-30T01:11:27;11.43;;;7.63;;
2289;SDS011;1153;47.986;7.898;2022-11-30T01:13:53;12.00;;;7.17;;
2289;SDS011;1153;47.986;7.898;2022-11-30T01:16:20;15.70;;;8.03;;
2289;SDS011;1153;47.986;7.898;2022-11-30T01:18:46;10.40;;;7.50;;
2289;SDS011;1153;47.986;7.898;2022-11-30T01:21:12;10.43;;;8.30;;
2289;SDS011;1153;47.986;7.898;2022-11-30T01:23:38;11.70;;;7.20;;
2289;SDS011;1153;47.986;7.898;2022-11-30T01:26:04;12.23;;;7.13;;
2289;SDS011;1153;47.986;7.898;2022-11-30T01:28:29;10.23;;;7.47;;
2289;SDS011;1153;47.986;7.898;2022-11-30T01:30:58;10.87;;;7.70;;
2289;SDS011;1153;47.986;7.898;2022-11-30T01:33:24;19.77;;;7.47;;
2289;SDS011;1153;47.986;7.898;2022-11-30T01:36:06;13.40;;;7.90;;
2289;SDS011;1153;47.986;7.898;2022-11-30T01:38:32;13.10;;;7.70;;
2289;SDS011;1153;47.986;7.898;2022-11-30T01:40:57;12.20;;;8.13;;
2289;SDS011;1153;47.986;7.898;2022-11-30T01:43:35;11.27;;;6.77;;
2289;SDS011;1153;47.986;7.898;2022-11-30T01:46:00;8.43;;;7.27;;
2289;SDS011;1153;47.986;7.898;2022-11-30T01:48:25;8.67;;;6.97;;
2289;SDS011;1153;47.986;7.898;2022-11-30T01:50:51;7.00;;;5.40;;
2289;SDS011;1153;47.986;7.898;2022-11-30T01:53:16;9.33;;;6.87;;
2289;SDS011;1153;47.986;7.898;2022-11-30T01:55:41;11.10;;;6.50;;
2289;SDS011;1153;47.986;7.898;2022-11-30T01:58:10;9.40;;;5.80;;
2289;SDS011;1153;47.986;7.898;2022-11-30T02:00:36;6.13;;;5.50;;
2289;SDS011;1153;47.986;7.898;2022-11-30T02:03:03;5.50;;;5.00;;
2289;SDS011;1153;47.986;7.898;2022-11-30T02:05:30;5.93;;;5.20;;
2289;SDS011;1153;47.986;7.898;2022-11-30T02:07:56;5.77;;;4.70;;
2289;SDS011;1153;47.986;7.898;2022-11-30T02:10:22;2.67;;;2.10;;
2289;SDS011;1153;47.986;7.898;2022-11-30T02:15:24;6.33;;;3.63;;
2289;SDS011;1153;47.986;7.898;2022-11-30T02:18:00;4.40;;;4.00;;
2289;SDS011;1153;47.986;7.898;2022-11-30T02:23:14;8.27;;;5.07;;
2289;SDS011;1153;47.986;7.898;2022-11-30T02:30:54;3.47;;;3.13;;
2289;SDS011;1153;47.986;7.898;2022-11-30T02:33:22;2.77;;;2.53;;
2289;SDS011;1153;47.986;7.898;2022-11-30T02:35:49;3.73;;;3.13;;
2289;SDS011;1153;47.986;7.898;2022-11-30T02:38:18;3.27;;;2.90;;
2289;SDS011;1153;47.986;7.898;2022-11-30T02:40:43;2.80;;;2.60;;
2289;SDS011;1153;47.986;7.898;2022-11-30T02:43:09;3.03;;;2.50;;
2289;SDS011;1153;47.986;7.898;2022-11-30T02:48:08;3.87;;;3.53;;
2289;SDS011;1153;47.986;7.898;2022-11-30T02:50:53;4.20;;;3.77;;
2289;SDS011;1153;47.986;7.898;2022-11-30T02:53:19;3.83;;;3.63;;
2289;SDS011;1153;47.986;7.898;2022-11-30T02:55:45;3.30;;;3.00;;
2289;SDS011;1153;47.986;7.898;2022-11-30T02:58:10;6.33;;;3.93;;
2289;SDS011;1153;47.986;7.898;2022-11-30T03:00:35;4.77;;;4.30;;
2289;SDS011;1153;47.986;7.898;2022-11-30T03:03:01;6.40;;;5.30;;
2289;SDS011;1153;47.986;7.898;2022-11-30T03:05:26;6.23;;;5.33;;
2289;SDS011;1153;47.986;7.898;2022-11-30T03:07:51;4.93;;;3.00;;
2289;SDS011;1153;47.986;7.898;2022-11-30T03:10:16;4.20;;;3.80;;
2289;SDS011;1153;47.986;7.898;2022-11-30T03:12:42;7.57;;;4.07;;
2289;SDS011;1153;47.986;7.898;2022-11-30T03:15:07;5.50;;;4.33;;
2289;SDS011;1153;47.986;7.898;2022-11-30T03:17:32;6.63;;;4.23;;
2289;SDS011;1153;47.986;7.898;2022-11-30T03:19:57;6.23;;;5.50;;
2289;SDS011;1153;47.986;7.898;2022-11-30T03:22:23;7.47;;;5.30;;
2289;SDS011;1153;47.986;7.898;2022-11-30T03:24:48;6.83;;;6.13;;
2289;SDS011;1153;47.986;7.898;2022-11-30T03:27:13;6.30;;;5.00;;
2289;SDS011;1153;47.986;7.898;2022-11-30T03:29:38;11.73;;;5.97;;
2289;SDS011;1153;47.986;7.898;2022-11-30T03:32:03;11.70;;;6.63;;
2289;SDS011;1153;47.986;7.898;2022-11-30T03:34:29;8.40;;;5.77;;
2289;SDS011;1153;47.986;7.898;2022-11-30T03:36:54;12.33;;;6.97;;
2289;SDS011;1153;47.986;7.898;2022-11-30T03:39:19;14.63;;;6.47;;
2289;SDS011;1153;47.986;7.898;2022-11-30T03:41:45;6.50;;;5.10;;
2289;SDS011;1153;47.986;7.898;2022-11-30T03:44:10;9.77;;;6.30;;
2289;SDS011;1153;47.986;7.898;2022-11-30T03:46:35;11.73;;;7.70;;
2289;SDS011;1153;47.986;7.898;2022-11-30T03:49:01;10.97;;;8.00;;
2289;SDS011;1153;47.986;7.898;2022-11-30T03:51:26;13.33;;;6.77;;
2289;SDS011;1153;47.986;7.898;2022-11-30T03:53:51;10.60;;;6.63;;
2289;SDS011;1153;47.986;7.898;2022-11-30T03:56:16;7.73;;;6.30;;
2289;SDS011;1153;47.986;7.898;2022-11-30T03:58:41;9.90;;;5.90;;
2289;SDS011;1153;47.986;7.898;2022-11-30T04:03:32;11.67;;;4.97;;
2289;SDS011;1153;47.986;7.898;2022-11-30T04:05:57;5.20;;;4.80;;
2289;SDS011;1153;47.986;7.898;2022-11-30T04:08:23;8.20;;;5.27;;
2289;SDS011;1153;47.986;7.898;2022-11-30T04:10:53;4.50;;;4.10;;
2289;SDS011;1153;47.986;7.898;2022-11-30T04:13:19;3.63;;;3.27;;
2289;SDS011;1153;47.986;7.898;2022-11-30T04:15:45;4.53;;;4.13;;
2289;SDS011;1153;47.986;7.898;2022-11-30T04:18:10;5.17;;;4.63;;
2289;SDS011;1153;47.986;7.898;2022-11-30T04:20:35;4.83;;;4.37;;
2289;SDS011;1153;47.986;7.898;2022-11-30T04:23:01;5.20;;;4.10;;
2289;SDS011;1153;47.986;7.898;2022-11-30T04:25:26;6.43;;;5.37;;
2289;SDS011;1153;47.986;7.898;2022-11-30T04:27:51;8.13;;;6.47;;
2289;SDS011;1153;47.986;7.898;2022-11-30T04:30:16;8.50;;;6.40;;
2289;SDS011;1153;47.986;7.898;2022-11-30T04:32:41;8.53;;;5.13;;
2289;SDS011;1153;47.986;7.898;2022-11-30T04:35:07;9.10;;;6.10;;
2289;SDS011;1153;47.986;7.898;2022-11-30T04:37:32;6.67;;;5.90;;
2289;SDS011;1153;47.986;7.898;2022-11-30T04:39:57;9.40;;;5.50;;
2289;SDS011;1153;47.986;7.898;2022-11-30T04:42:23;7.33;;;5.33;;
2289;SDS011;1153;47.986;7.898;2022-11-30T04:44:49;7.33;;;6.20;;
2289;SDS011;1153;47.986;7.898;2022-11-30T04:47:14;15.13;;;6.03;;
2289;SDS011;1153;47.986;7.898;2022-11-30T04:49:39;5.90;;;5.00;;
2289;SDS011;1153;47.986;7.898;2022-11-30T04:52:05;10.57;;;7.00;;
2289;SDS011;1153;47.986;7.898;2022-11-30T04:54:30;10.20;;;5.97;;
2289;SDS011;1153;47.986;7.898;2022-11-30T04:56:55;10.13;;;6.80;;
2289;SDS011;1153;47.986;7.898;2022-11-30T04:59:20;10.93;;;6.73;;
2289;SDS011;1153;47.986;7.898;2022-11-30T05:01:45;7.50;;;5.70;;
2289;SDS011;1153;47.986;7.898;2022-11-30T05:04:11;9.00;;;6.37;;
2289;SDS011;1153;47.986;7.898;2022-11-30T05:06:36;7.23;;;6.47;;
2289;SDS011;1153;47.986;7.898;2022-11-30T05:09:01;10.60;;;6.13;;
2289;SDS011;1153;47.986;7.898;2022-11-30T05:11:26;7.27;;;5.43;;
2289;SDS011;1153;47.986;7.898;2022-11-30T05:13:51;10.67;;;6.40;;
2289;SDS011;1153;47.986;7.898;2022-11-30T05:16:16;6.30;;;5.60;;
2289;SDS011;1153;47.986;7.898;2022-11-30T05:18:42;6.27;;;5.40;;
2289;SDS011;1153;47.986;7.898;2022-11-30T05:21:07;6.27;;;5.70;;
2289;SDS011;1153;47.986;7.898;2022-11-30T05:23:32;7.07;;;5.33;;
2289;SDS011;1153;47.986;7.898;2022-11-30T05:25:59;7.67;;;5.77;;
2289;SDS011;1153;47.986;7.898;2022-11-30T05:28:25;6.50;;;6.10;;
2289;SDS011;1153;47.986;7.898;2022-11-30T05:30:50;6.23;;;5.27;;
2289;SDS011;1153;47.986;7.898;2022-11-30T05:33:15;4.50;;;4.20;;
2289;SDS011;1153;47.986;7.898;2022-11-30T05:35:41;6.93;;;4.07;;
2289;SDS011;1153;47.986;7.898;2022-11-30T05:38:06;5.20;;;3.30;;
2289;SDS011;1153;47.986;7.898;2022-11-30T05:40:31;3.10;;;2.80;;
2289;SDS011;1153;47.986;7.898;2022-11-30T05:42:58;5.30;;;4.80;;
2289;SDS011;1153;47.986;7.898;2022-11-30T05:45:23;3.50;;;3.30;;
2289;SDS011;1153;47.986;7.898;2022-11-30T05:47:49;4.23;;;3.93;;
2289;SDS011;1153;47.986;7.898;2022-11-30T05:50:14;7.57;;;6.40;;
2289;SDS011;1153;47.986;7.898;2022-11-30T05:52:39;6.10;;;5.50;;
2289;SDS011;1153;47.986;7.898;2022-11-30T05:55:04;4.67;;;4.27;;
2289;SDS011;1153;47.986;7.898;2022-11-30T05:57:30;5.67;;;5.27;;
2289;SDS011;1153;47.986;7.898;2022-11-30T05:59:55;4.20;;;3.90;;
2289;SDS011;1153;47.986;7.898;2022-11-30T06:02:20;7.13;;;4.40;;
2289;SDS011;1153;47.986;7.898;2022-11-30T06:04:45;4.03;;;3.63;;
2289;SDS011;1153;47.986;7.898;2022-11-30T06:07:10;6.00;;;5.30;;
2289;SDS011;1153;47.986;7.898;2022-11-30T06:09:36;4.73;;;4.43;;
2289;SDS011;1153;47.986;7.898;2022-11-30T06:12:02;4.40;;;4.10;;
2289;SDS011;1153;47.986;7.898;2022-11-30T06:14:27;4.63;;;4.33;;
2289;SDS011;1153;47.986;7.898;2022-11-30T06:16:52;4.63;;;4.33;;
2289;SDS011;1153;47.986;7.898;2022-11-30T06:19:17;5.43;;;4.93;;
2289;SDS011;1153;47.986;7.898;2022-11-30T06:21:42;4.87;;;4.57;;
2289;SDS011;1153;47.986;7.898;2022-11-30T06:24:08;7.10;;;5.40;;
2289;SDS011;1153;47.986;7.898;2022-11-30T06:26:34;5.37;;;4.87;;
2289;SDS011;1153;47.986;7.898;2022-11-30T06:28:59;4.90;;;4.53;;
2289;SDS011;1153;47.986;7.898;2022-11-30T06:31:24;5.13;;;4.73;;
2289;SDS011;1153;47.986;7.898;2022-11-30T06:33:50;4.40;;;4.00;;
2289;SDS011;1153;47.986;7.898;2022-11-30T06:36:21;4.67;;;4.37;;
2289;SDS011;1153;47.986;7.898;2022-11-30T06:38:47;5.80;;;5.30;;
2289;SDS011;1153;47.986;7.898;2022-11-30T06:41:12;7.23;;;6.47;;
2289;SDS011;1153;47.986;7.898;2022-11-30T06:43:37;5.40;;;4.97;;
2289;SDS011;1153;47.986;7.898;2022-11-30T06:46:03;4.10;;;3.80;;
2289;SDS011;1153;47.986;7.898;2022-11-30T06:48:29;3.83;;;3.60;;
2289;SDS011;1153;47.986;7.898;2022-11-30T06:50:54;5.40;;;5.03;;
2289;SDS011;1153;47.986;7.898;2022-11-30T06:53:19;4.97;;;4.50;;
2289;SDS011;1153;47.986;7.898;2022-11-30T06:55:45;4.90;;;4.50;;
2289;SDS011;1153;47.986;7.898;2022-11-30T06:58:10;3.70;;;3.40;;
2289;SDS011;1153;47.986;7.898;2022-11-30T07:00:35;4.47;;;4.10;;
2289;SDS011;1153;47.986;7.898;2022-11-30T07:03:01;4.50;;;4.20;;
2289;SDS011;1153;47.986;7.898;2022-11-30T07:05:27;4.20;;;4.00;;
2289;SDS011;1153;47.986;7.898;2022-11-30T07:07:52;6.20;;;4.40;;
2289;SDS011;1153;47.986;7.898;2022-11-30T07:10:17;4.60;;;3.97;;
2289;SDS011;1153;47.986;7.898;2022-11-30T07:12:42;6.67;;;4.10;;
2289;SDS011;1153;47.986;7.898;2022-11-30T07:15:09;6.53;;;5.10;;
2289;SDS011;1153;47.986;7.898;2022-11-30T07:17:34;4.33;;;4.03;;
2289;SDS011;1153;47.986;7.898;2022-11-30T07:20:00;3.70;;;3.40;;
2289;SDS011;1153;47.986;7.898;2022-11-30T07:22:25;5.23;;;4.57;;
2289;SDS011;1153;47.986;7.898;2022-11-30T07:24:50;4.07;;;3.77;;
2289;SDS011;1153;47.986;7.898;2022-11-30T07:27:34;5.17;;;4.37;;
2289;SDS011;1153;47.986;7.898;2022-11-30T07:29:59;4.77;;;4.27;;
2289;SDS011;1153;47.986;7.898;2022-11-30T07:32:24;6.20;;;3.97;;
2289;SDS011;1153;47.986;7.898;2022-11-30T07:34:50;4.53;;;4.23;;
2289;SDS011;1153;47.986;7.898;2022-11-30T07:37:15;8.37;;;5.07;;
2289;SDS011;1153;47.986;7.898;2022-11-30T07:39:40;5.53;;;4.67;;
2289;SDS011;1153;47.986;7.898;2022-11-30T07:42:05;5.90;;;4.73;;
2289;SDS011;1153;47.986;7.898;2022-11-30T07:44:30;6.90;;;4.30;;
2289;SDS011;1153;47.986;7.898;2022-11-30T07:46:56;5.47;;;4.97;;
2289;SDS011;1153;47.986;7.898;2022-11-30T07:49:22;6.93;;;5.70;;
2289;SDS011;1153;47.986;7.898;2022-11-30T07:51:47;4.67;;;4.20;;
2289;SDS011;1153;47.986;7.898;2022-11-30T07:54:12;5.10;;;4.70;;
2289;SDS011;1153;47.986;7.898;2022-11-30T07:56:37;4.73;;;4.53;;
2289;SDS011;1153;47.986;7.898;2022-11-30T07:59:03;5.43;;;5.00;;
2289;SDS011;1153;47.986;7.898;2022-11-30T08:01:29;6.83;;;6.03;;
2289;SDS011;1153;47.986;7.898;2022-11-30T08:03:54;4.83;;;4.53;;
2289;SDS011;1153;47.986;7.898;2022-11-30T08:06:20;4.37;;;4.07;;
2289;SDS011;1153;47.986;7.898;2022-11-30T08:08:47;6.77;;;6.17;;
2289;SDS011;1153;47.986;7.898;2022-11-30T08:11:13;7.13;;;6.53;;
2289;SDS011;1153;47.986;7.898;2022-11-30T08:13:39;6.47;;;5.80;;
2289;SDS011;1153;47.986;7.898;2022-11-30T08:16:07;4.93;;;4.63;;
2289;SDS011;1153;47.986;7.898;2022-11-30T08:18:33;4.93;;;4.47;;
2289;SDS011;1153;47.986;7.898;2022-11-30T08:20:59;5.60;;;5.20;;
2289;SDS011;1153;47.986;7.898;2022-11-30T08:23:28;5.53;;;5.13;;
2289;SDS011;1153;47.986;7.898;2022-11-30T08:25:53;4.77;;;4.33;;
2289;SDS011;1153;47.986;7.898;2022-11-30T08:28:18;4.23;;;4.03;;
2289;SDS011;1153;47.986;7.898;2022-11-30T08:30:44;5.00;;;4.50;;
2289;SDS011;1153;47.986;7.898;2022-11-30T08:33:09;4.67;;;4.10;;
2289;SDS011;1153;47.986;7.898;2022-11-30T08:35:34;5.83;;;5.33;;
2289;SDS011;1153;47.986;7.898;2022-11-30T08:37:59;5.80;;;4.53;;
2289;SDS011;1153;47.986;7.898;2022-11-30T08:40:24;4.20;;;3.90;;
2289;SDS011;1153;47.986;7.898;2022-11-30T08:42:50;11.63;;;4.00;;
2289;SDS011;1153;47.986;7.898;2022-11-30T08:45:15;4.37;;;3.60;;
2289;SDS011;1153;47.986;7.898;2022-11-30T08:47:40;3.97;;;3.70;;
2289;SDS011;1153;47.986;7.898;2022-11-30T08:50:05;4.70;;;4.30;;
2289;SDS011;1153;47.986;7.898;2022-11-30T08:52:31;5.03;;;4.33;;
2289;SDS011;1153;47.986;7.898;2022-11-30T08:54:56;5.40;;;4.23;;
2289;SDS011;1153;47.986;7.898;2022-11-30T08:57:21;6.67;;;5.87;;
2289;SDS011;1153;47.986;7.898;2022-11-30T08:59:46;4.83;;;3.93;;
2289;SDS011;1153;47.986;7.898;2022-11-30T09:02:12;5.27;;;4.73;;
2289;SDS011;1153;47.986;7.898;2022-11-30T09:04:40;8.43;;;5.83;;
2289;SDS011;1153;47.986;7.898;2022-11-30T09:07:06;5.53;;;5.03;;
2289;SDS011;1153;47.986;7.898;2022-11-30T09:09:31;5.77;;;5.30;;
2289;SDS011;1153;47.986;7.898;2022-11-30T09:11:56;5.70;;;5.20;;
2289;SDS011;1153;47.986;7.898;2022-11-30T09:14:21;7.30;;;5.30;;
2289;SDS011;1153;47.986;7.898;2022-11-30T09:16:47;5.67;;;5.27;;
2289;SDS011;1153;47.986;7.898;2022-11-30T09:19:12;6.47;;;5.97;;
2289;SDS011;1153;47.986;7.898;2022-11-30T09:21:37;6.07;;;5.53;;
2289;SDS011;1153;47.986;7.898;2022-11-30T09:24:02;6.07;;;5.47;;
2289;SDS011;1153;47.986;7.898;2022-11-30T09:26:28;5.97;;;5.37;;
2289;SDS011;1153;47.986;7.898;2022-11-30T09:28:53;5.20;;;4.90;;
2289;SDS011;1153;47.986;7.898;2022-11-30T09:31:19;3.40;;;3.20;;
2289;SDS011;1153;47.986;7.898;2022-11-30T09:33:45;4.40;;;4.10;;
2289;SDS011;1153;47.986;7.898;2022-11-30T09:36:11;6.27;;;5.77;;
2289;SDS011;1153;47.986;7.898;2022-11-30T09:38:37;4.47;;;4.17;;
2289;SDS011;1153;47.986;7.898;2022-11-30T09:41:09;4.83;;;4.50;;
2289;SDS011;1153;47.986;7.898;2022-11-30T09:46:06;3.50;;;3.30;;
2289;SDS011;1153;47.986;7.898;2022-11-30T09:51:35;5.57;;;5.17;;
2289;SDS011;1153;47.986;7.898;2022-11-30T09:54:03;6.03;;;5.27;;
2289;SDS011;1153;47.986;7.898;2022-11-30T09:56:33;6.00;;;4.50;;
2289;SDS011;1153;47.986;7.898;2022-11-30T09:59:07;5.07;;;4.67;;
2289;SDS011;1153;47.986;7.898;2022-11-30T10:01:37;5.60;;;4.63;;
2289;SDS011;1153;47.986;7.898;2022-11-30T10:04:02;4.50;;;4.30;;
2289;SDS011;1153;47.986;7.898;2022-11-30T10:06:37;5.70;;;5.17;;
2289;SDS011;1153;47.986;7.898;2022-11-30T10:21:51;5.70;;;5.30;;
2289;SDS011;1153;47.986;7.898;2022-11-30T10:24:41;6.07;;;5.27;;
2289;SDS011;1153;47.986;7.898;2022-11-30T10:27:17;31.77;;;5.40;;
2289;SDS011;1153;47.986;7.898;2022-11-30T10:29:49;5.30;;;5.00;;
2289;SDS011;1153;47.986;7.898;2022-11-30T10:32:21;6.13;;;5.53;;
2289;SDS011;1153;47.986;7.898;2022-11-30T10:34:49;6.73;;;6.13;;
2289;SDS011;1153;47.986;7.898;2022-11-30T10:37:20;7.03;;;5.40;;
2289;SDS011;1153;47.986;7.898;2022-11-30T10:44:46;5.13;;;4.73;;
2289;SDS011;1153;47.986;7.898;2022-11-30T10:47:16;7.00;;;4.67;;
2289;SDS011;1153;47.986;7.898;2022-11-30T10:49:45;5.77;;;4.33;;
2289;SDS011;1153;47.986;7.898;2022-11-30T10:52:12;5.37;;;4.87;;
2289;SDS011;1153;47.986;7.898;2022-11-30T10:54:41;8.83;;;4.30;;
2289;SDS011;1153;47.986;7.898;2022-11-30T10:57:06;5.70;;;5.20;;
2289;SDS011;1153;47.986;7.898;2022-11-30T11:00:04;4.37;;;4.10;;
2289;SDS011;1153;47.986;7.898;2022-11-30T11:07:51;6.33;;;5.80;;
2289;SDS011;1153;47.986;7.898;2022-11-30T11:10:19;5.53;;;4.90;;
2289;SDS011;1153;47.986;7.898;2022-11-30T11:12:49;6.50;;;5.03;;
2289;SDS011;1153;47.986;7.898;2022-11-30T11:15:17;9.03;;;4.40;;
2289;SDS011;1153;47.986;7.898;2022-11-30T11:17:42;5.60;;;5.20;;
2289;SDS011;1153;47.986;7.898;2022-11-30T11:20:27;6.77;;;4.70;;
2289;SDS011;1153;47.986;7.898;2022-11-30T11:22:53;5.53;;;5.03;;
2289;SDS011;1153;47.986;7.898;2022-11-30T11:25:24;4.93;;;4.63;;
2289;SDS011;1153;47.986;7.898;2022-11-30T11:27:50;5.57;;;5.13;;
2289;SDS011;1153;47.986;7.898;2022-11-30T11:32:43;4.90;;;4.60;;
2289;SDS011;1153;47.986;7.898;2022-11-30T11:35:43;5.00;;;4.70;;
2289;SDS011;1153;47.986;7.898;2022-11-30T11:40:54;5.40;;;5.10;;
2289;SDS011;1153;47.986;7.898;2022-11-30T11:43:20;4.40;;;4.10;;
2289;SDS011;1153;47.986;7.898;2022-11-30T11:45:49;6.03;;;5.73;;
2289;SDS011;1153;47.986;7.898;2022-11-30T11:48:26;5.50;;;5.20;;
2289;SDS011;1153;47.986;7.898;2022-11-30T11:51:02;6.00;;;5.43;;
2289;SDS011;1153;47.986;7.898;2022-11-30T11:56:01;3.83;;;3.53;;
2289;SDS011;1153;47.986;7.898;2022-11-30T11:58:40;5.90;;;5.40;;
2289;SDS011;1153;47.986;7.898;2022-11-30T12:01:10;5.40;;;5.00;;
2289;SDS011;1153;47.986;7.898;2022-11-30T12:03:44;4.47;;;4.17;;
2289;SDS011;1153;47.986;7.898;2022-11-30T12:06:13;5.27;;;4.97;;
2289;SDS011;1153;47.986;7.898;2022-11-30T12:08:50;5.23;;;3.90;;
2289;SDS011;1153;47.986;7.898;2022-11-30T12:13:47;4.10;;;3.70;;
2289;SDS011;1153;47.986;7.898;2022-11-30T12:26:58;3.20;;;3.00;;
2289;SDS011;1153;47.986;7.898;2022-11-30T12:29:38;4.37;;;4.07;;
2289;SDS011;1153;47.986;7.898;2022-11-30T12:36:59;4.03;;;3.73;;
2289;SDS011;1153;47.986;7.898;2022-11-30T12:45:04;5.60;;;5.30;;
2289;SDS011;1153;47.986;7.898;2022-11-30T12:50:24;2.90;;;2.70;;
2289;SDS011;1153;47.986;7.898;2022-11-30T12:52:56;2.60;;;2.40;;
2289;SDS011;1153;47.986;7.898;2022-11-30T13:00:21;2.37;;;1.33;;
2289;SDS011;1153;47.986;7.898;2022-11-30T13:05:41;1.30;;;1.20;;
2289;SDS011;1153;47.986;7.898;2022-11-30T13:08:12;2.20;;;2.00;;
2289;SDS011;1153;47.986;7.898;2022-11-30T13:10:43;3.50;;;3.20;;
2289;SDS011;1153;47.986;7.898;2022-11-30T13:13:18;3.40;;;3.13;;
2289;SDS011;1153;47.986;7.898;2022-11-30T13:15:46;2.90;;;2.70;;
2289;SDS011;1153;47.986;7.898;2022-11-30T13:18:15;1.40;;;1.10;;
2289;SDS011;1153;47.986;7.898;2022-11-30T13:20:58;2.30;;;0.90;;
2289;SDS011;1153;47.986;7.898;2022-11-30T13:26:24;2.13;;;1.90;;
2289;SDS011;1153;47.986;7.898;2022-11-30T13:34:27;1.20;;;0.80;;
2289;SDS011;1153;47.986;7.898;2022-11-30T13:37:26;1.00;;;0.80;;
2289;SDS011;1153;47.986;7.898;2022-11-30T13:44:41;0.90;;;0.67;;
2289;SDS011;1153;47.986;7.898;2022-11-30T14:03:16;1.50;;;0.60;;
2289;SDS011;1153;47.986;7.898;2022-11-30T14:05:54;1.20;;;1.07;;
2289;SDS011;1153;47.986;7.898;2022-11-30T14:10:51;1.07;;;0.90;;
2289;SDS011;1153;47.986;7.898;2022-11-30T14:18:16;2.07;;;0.80;;
2289;SDS011;1153;47.986;7.898;2022-11-30T14:20:44;2.10;;;2.00;;
2289;SDS011;1153;47.986;7.898;2022-11-30T14:23:58;3.37;;;0.70;;
2289;SDS011;1153;47.986;7.898;2022-11-30T14:25:59;1.20;;;0.60;;
2289;SDS011;1153;47.986;7.898;2022-11-30T14:31:20;0.97;;;0.67;;
2289;SDS011;1153;47.986;7.898;2022-11-30T14:34:08;2.53;;;0.83;;
2289;SDS011;1153;47.986;7.898;2022-11-30T14:36:35;1.13;;;0.77;;
2289;SDS011;1153;47.986;7.898;2022-11-30T14:39:02;1.40;;;1.30;;
2289;SDS011;1153;47.986;7.898;2022-11-30T14:41:28;7.60;;;0.70;;
2289;SDS011;1153;47.986;7.898;2022-11-30T14:46:24;0.80;;;0.60;;
2289;SDS011;1153;47.986;7.898;2022-11-30T14:51:49;1.73;;;0.70;;
2289;SDS011;1153;47.986;7.898;2022-11-30T14:57:21;1.97;;;0.60;;
2289;SDS011;1153;47.986;7.898;2022-11-30T14:59:52;1.20;;;1.00;;
2289;SDS011;1153;47.986;7.898;2022-11-30T15:02:23;1.10;;;0.80;;
2289;SDS011;1153;47.986;7.898;2022-11-30T15:04:50;1.00;;;0.60;;
2289;SDS011;1153;47.986;7.898;2022-11-30T15:07:16;1.10;;;0.70;;
2289;SDS011;1153;47.986;7.898;2022-11-30T15:09:42;1.47;;;1.37;;
2289;SDS011;1153;47.986;7.898;2022-11-30T15:12:08;1.10;;;0.80;;
2289;SDS011;1153;47.986;7.898;2022-11-30T15:14:33;3.53;;;0.60;;
2289;SDS011;1153;47.986;7.898;2022-11-30T15:16:58;2.03;;;0.60;;
2289;SDS011;1153;47.986;7.898;2022-11-30T15:19:25;1.40;;;0.93;;
2289;SDS011;1153;47.986;7.898;2022-11-30T15:21:51;1.20;;;0.80;;
2289;SDS011;1153;47.986;7.898;2022-11-30T15:24:16;1.10;;;0.70;;
2289;SDS011;1153;47.986;7.898;2022-11-30T15:29:19;1.57;;;1.30;;
2289;SDS011;1153;47.986;7.898;2022-11-30T15:31:47;1.30;;;0.70;;
2289;SDS011;1153;47.986;7.898;2022-11-30T15:34:18;1.87;;;1.07;;
2289;SDS011;1153;47.986;7.898;2022-11-30T15:36:44;2.57;;;1.97;;
2289;SDS011;1153;47.986;7.898;2022-11-30T15:39:15;4.33;;;0.90;;
2289;SDS011;1153;47.986;7.898;2022-11-30T15:41:41;1.37;;;0.80;;
2289;SDS011;1153;47.986;7.898;2022-11-30T15:44:15;1.10;;;0.80;;
2289;SDS011;1153;47.986;7.898;2022-11-30T15:49:37;1.00;;;0.70;;
2289;SDS011;1153;47.986;7.898;2022-11-30T15:57:08;1.10;;;0.70;;
2289;SDS011;1153;47.986;7.898;2022-11-30T15:59:33;2.27;;;0.73;;
2289;SDS011;1153;47.986;7.898;2022-11-30T16:01:59;1.00;;;0.70;;
2289;SDS011;1153;47.986;7.898;2022-11-30T16:07:15;2.23;;;1.77;;
2289;SDS011;1153;47.986;7.898;2022-11-30T16:09:41;1.80;;;1.70;;
2289;SDS011;1153;47.986;7.898;2022-11-30T16:12:06;1.40;;;1.23;;
2289;SDS011;1153;47.986;7.898;2022-11-30T16:14:37;2.50;;;2.30;;
2289;SDS011;1153;47.986;7.898;2022-11-30T16:17:03;1.40;;;1.30;;
2289;SDS011;1153;47.986;7.898;2022-11-30T16:19:28;1.80;;;1.70;;
2289;SDS011;1153;47.986;7.898;2022-11-30T16:21:53;1.73;;;0.90;;
2289;SDS011;1153;47.986;7.898;2022-11-30T16:24:18;1.50;;;1.20;;
2289;SDS011;1153;47.986;7.898;2022-11-30T16:26:44;3.33;;;1.10;;
2289;SDS011;1153;47.986;7.898;2022-11-30T16:29:09;1.27;;;1.17;;
2289;SDS011;1153;47.986;7.898;2022-11-30T16:31:34;1.30;;;1.10;;
2289;SDS011;1153;47.986;7.898;2022-11-30T16:34:01;1.00;;;0.63;;
2289;SDS011;1153;47.986;7.898;2022-11-30T16:36:26;1.50;;;1.10;;
2289;SDS011;1153;47.986;7.898;2022-11-30T16:38:51;1.73;;;1.20;;
2289;SDS011;1153;47.986;7.898;2022-11-30T16:41:20;1.23;;;1.00;;
2289;SDS011;1153;47.986;7.898;2022-11-30T16:43:47;1.10;;;1.00;;
2289;SDS011;1153;47.986;7.898;2022-11-30T16:46:13;1.90;;;1.70;;
2289;SDS011;1153;47.986;7.898;2022-11-30T16:48:39;1.20;;;0.87;;
2289;SDS011;1153;47.986;7.898;2022-11-30T16:51:04;1.20;;;0.90;;
2289;SDS011;1153;47.986;7.898;2022-11-30T16:53:30;1.23;;;0.90;;
2289;SDS011;1153;47.986;7.898;2022-11-30T16:55:55;1.20;;;0.87;;
2289;SDS011;1153;47.986;7.898;2022-11-30T16:58:20;1.00;;;0.70;;
2289;SDS011;1153;47.986;7.898;2022-11-30T17:00:45;2.43;;;1.00;;
2289;SDS011;1153;47.986;7.898;2022-11-30T17:03:18;1.03;;;0.67;;
2289;SDS011;1153;47.986;7.898;2022-11-30T17:05:43;1.20;;;0.70;;
2289;SDS011;1153;47.986;7.898;2022-11-30T17:08:09;1.37;;;1.10;;
2289;SDS011;1153;47.986;7.898;2022-11-30T17:10:34;1.40;;;0.90;;
2289;SDS011;1153;47.986;7.898;2022-11-30T17:13:00;1.00;;;0.60;;
2289;SDS011;1153;47.986;7.898;2022-11-30T17:15:25;1.10;;;0.77;;
2289;SDS011;1153;47.986;7.898;2022-11-30T17:17:51;1.90;;;1.07;;
2289;SDS011;1153;47.986;7.898;2022-11-30T17:20:16;1.83;;;1.00;;
2289;SDS011;1153;47.986;7.898;2022-11-30T17:22:42;1.33;;;0.83;;
2289;SDS011;1153;47.986;7.898;2022-11-30T17:25:10;1.23;;;0.97;;
2289;SDS011;1153;47.986;7.898;2022-11-30T17:27:37;1.00;;;0.60;;
2289;SDS011;1153;47.986;7.898;2022-11-30T17:30:02;2.20;;;1.80;;
2289;SDS011;1153;47.986;7.898;2022-11-30T17:32:28;1.73;;;1.37;;
2289;SDS011;1153;47.986;7.898;2022-11-30T17:34:53;0.97;;;0.70;;
2289;SDS011;1153;47.986;7.898;2022-11-30T17:37:18;3.13;;;1.40;;
2289;SDS011;1153;47.986;7.898;2022-11-30T17:39:43;1.90;;;1.20;;